sensor_id;sensor_type;location;lat;lon;timestamp;pressure;altitude;pressure_sealevel;temperature;humidity
75549;BME280;64133;56.002;37.208;2023-03-31T00:04:16;98454.14;;;-1.06;77.19
75549;BME280;64133;56.002;37.208;2023-03-31T00:09:21;98453.45;;;-1.18;77.40
75549;BME280;64133;56.002;37.208;2023-03-31T00:14:25;98446.61;;;-1.28;77.74
75549;BME280;64133;56.002;37.208;2023-03-31T00:19:30;98448.67;;;-1.35;77.98
75549;BME280;64133;56.002;37.208;2023-03-31T00:24:35;98437.05;;;-1.35;78.19
75549;BME280;64133;56.002;37.208;2023-03-31T00:29:39;98438.33;;;-1.43;78.31
75549;BME280;64133;56.002;37.208;2023-03-31T00:34:45;98442.84;;;-1.48;78.59
75549;BME280;64133;56.002;37.208;2023-03-31T00:39:50;98431.31;;;-1.50;78.60
75549;BME280;64133;56.002;37.208;2023-03-31T00:45:23;98414.26;;;-1.71;78.82
75549;BME280;64133;56.002;37.208;2023-03-31T00:50:28;98433.05;;;-1.59;79.03
75549;BME280;64133;56.002;37.208;2023-03-31T00:55:33;98427.78;;;-1.66;79.12
75549;BME280;64133;56.002;37.208;2023-03-31T01:00:37;98435.67;;;-1.78;79.45
75549;BME280;64133;56.002;37.208;2023-03-31T01:05:43;98438.68;;;-1.79;79.60
75549;BME280;64133;56.002;37.208;2023-03-31T01:10:48;98437.31;;;-1.86;79.77
75549;BME280;64133;56.002;37.208;2023-03-31T01:15:52;98422.80;;;-1.88;79.94
75549;BME280;64133;56.002;37.208;2023-03-31T01:21:14;98418.92;;;-1.88;79.97
75549;BME280;64133;56.002;37.208;2023-03-31T01:26:35;98411.56;;;-1.96;80.15
75549;BME280;64133;56.002;37.208;2023-03-31T01:37:49;98394.38;;;-1.97;80.43
75549;BME280;64133;56.002;37.208;2023-03-31T01:42:54;98402.42;;;-2.03;80.38
75549;BME280;64133;56.002;37.208;2023-03-31T01:48:00;98399.59;;;-2.07;80.39
75549;BME280;64133;56.002;37.208;2023-03-31T01:53:04;98395.36;;;-2.08;80.46
75549;BME280;64133;56.002;37.208;2023-03-31T01:58:10;98395.19;;;-2.05;80.46
75549;BME280;64133;56.002;37.208;2023-03-31T02:03:16;98392.42;;;-2.19;80.40
75549;BME280;64133;56.002;37.208;2023-03-31T02:08:21;98377.29;;;-2.27;80.47
75549;BME280;64133;56.002;37.208;2023-03-31T02:13:26;98376.45;;;-2.28;80.61
75549;BME280;64133;56.002;37.208;2023-03-31T02:18:31;98381.95;;;-2.35;80.68
75549;BME280;64133;56.002;37.208;2023-03-31T02:23:36;98368.64;;;-2.35;80.80
75549;BME280;64133;56.002;37.208;2023-03-31T02:28:41;98336.35;;;-2.62;80.81
75549;BME280;64133;56.002;37.208;2023-03-31T02:33:45;98370.97;;;-2.39;80.89
75549;BME280;64133;56.002;37.208;2023-03-31T02:38:51;98359.04;;;-2.41;80.92
75549;BME280;64133;56.002;37.208;2023-03-31T02:43:55;98352.10;;;-2.49;80.84
75549;BME280;64133;56.002;37.208;2023-03-31T02:49:00;98363.45;;;-2.54;81.07
75549;BME280;64133;56.002;37.208;2023-03-31T02:59:54;98361.42;;;-2.56;81.30
75549;BME280;64133;56.002;37.208;2023-03-31T03:05:11;98357.92;;;-2.55;81.25
75549;BME280;64133;56.002;37.208;2023-03-31T03:10:17;98354.14;;;-2.56;81.47
75549;BME280;64133;56.002;37.208;2023-03-31T03:15:22;98360.50;;;-2.55;81.53
75549;BME280;64133;56.002;37.208;2023-03-31T03:20:26;98364.45;;;-2.56;81.49
75549;BME280;64133;56.002;37.208;2023-03-31T03:25:30;98366.36;;;-2.51;81.44
75549;BME280;64133;56.002;37.208;2023-03-31T03:30:35;98368.81;;;-2.48;81.52
75549;BME280;64133;56.002;37.208;2023-03-31T03:35:40;98366.27;;;-2.39;81.28
75549;BME280;64133;56.002;37.208;2023-03-31T03:40:44;98362.81;;;-2.30;81.19
75549;BME280;64133;56.002;37.208;2023-03-31T03:45:49;98361.73;;;-1.44;80.87
75549;BME280;64133;56.002;37.208;2023-03-31T03:50:54;98340.63;;;0.49;78.97
75549;BME280;64133;56.002;37.208;2023-03-31T03:55:58;98350.02;;;2.94;74.11
75549;BME280;64133;56.002;37.208;2023-03-31T04:01:03;98336.40;;;6.09;62.98
75549;BME280;64133;56.002;37.208;2023-03-31T04:06:08;98335.00;;;7.72;60.43
75549;BME280;64133;56.002;37.208;2023-03-31T04:11:13;98327.64;;;10.90;51.88
75549;BME280;64133;56.002;37.208;2023-03-31T04:16:18;98318.94;;;13.32;45.90
75549;BME280;64133;56.002;37.208;2023-03-31T04:21:22;98317.30;;;14.10;42.80
75549;BME280;64133;56.002;37.208;2023-03-31T04:26:28;98315.19;;;14.37;42.33
75549;BME280;64133;56.002;37.208;2023-03-31T04:36:47;98302.05;;;14.16;39.05
75549;BME280;64133;56.002;37.208;2023-03-31T04:41:52;98285.59;;;17.32;34.69
75549;BME280;64133;56.002;37.208;2023-03-31T04:46:57;98282.56;;;19.08;32.50
75549;BME280;64133;56.002;37.208;2023-03-31T04:52:02;98274.30;;;20.01;31.14
75549;BME280;64133;56.002;37.208;2023-03-31T04:57:06;98264.16;;;18.56;30.99
75549;BME280;64133;56.002;37.208;2023-03-31T05:02:13;98260.84;;;20.94;28.57
75549;BME280;64133;56.002;37.208;2023-03-31T05:07:18;98284.41;;;20.15;27.25
75549;BME280;64133;56.002;37.208;2023-03-31T05:12:23;98281.42;;;18.80;29.01
75549;BME280;64133;56.002;37.208;2023-03-31T05:22:33;98256.41;;;20.02;27.52
75549;BME280;64133;56.002;37.208;2023-03-31T05:27:38;98247.93;;;21.52;24.73
75549;BME280;64133;56.002;37.208;2023-03-31T05:32:42;98248.81;;;16.26;28.81
75549;BME280;64133;56.002;37.208;2023-03-31T05:37:47;98248.95;;;12.63;32.34
75549;BME280;64133;56.002;37.208;2023-03-31T05:42:52;98259.41;;;7.87;39.42
75549;BME280;64133;56.002;37.208;2023-03-31T05:47:56;98245.42;;;19.43;27.27
75549;BME280;64133;56.002;37.208;2023-03-31T05:53:01;98256.30;;;23.30;23.11
75549;BME280;64133;56.002;37.208;2023-03-31T05:58:06;98272.44;;;21.22;23.72
75549;BME280;64133;56.002;37.208;2023-03-31T06:03:11;98267.17;;;18.77;25.52
75549;BME280;64133;56.002;37.208;2023-03-31T06:08:15;98274.94;;;19.25;25.37
75549;BME280;64133;56.002;37.208;2023-03-31T06:13:20;98283.06;;;19.99;24.22
75549;BME280;64133;56.002;37.208;2023-03-31T06:18:25;98274.91;;;22.66;21.66
75549;BME280;64133;56.002;37.208;2023-03-31T06:23:30;98269.75;;;23.94;20.55
75549;BME280;64133;56.002;37.208;2023-03-31T06:28:34;98258.51;;;22.98;20.53
75549;BME280;64133;56.002;37.208;2023-03-31T06:33:39;98252.75;;;24.19;19.67
75549;BME280;64133;56.002;37.208;2023-03-31T06:38:45;98256.08;;;24.10;20.04
75549;BME280;64133;56.002;37.208;2023-03-31T06:43:48;98241.50;;;23.94;19.39
75549;BME280;64133;56.002;37.208;2023-03-31T06:48:53;98242.49;;;24.16;18.64
75549;BME280;64133;56.002;37.208;2023-03-31T06:53:58;98245.90;;;25.83;18.11
75549;BME280;64133;56.002;37.208;2023-03-31T06:59:02;98239.00;;;26.19;17.19
75549;BME280;64133;56.002;37.208;2023-03-31T07:04:07;98243.11;;;27.65;16.52
75549;BME280;64133;56.002;37.208;2023-03-31T07:09:11;98221.86;;;30.54;14.49
75549;BME280;64133;56.002;37.208;2023-03-31T07:14:16;98226.36;;;27.21;16.02
75549;BME280;64133;56.002;37.208;2023-03-31T07:19:21;98231.17;;;28.37;15.43
75549;BME280;64133;56.002;37.208;2023-03-31T07:24:27;98230.79;;;24.87;16.81
75549;BME280;64133;56.002;37.208;2023-03-31T07:29:32;98227.33;;;26.40;15.75
75549;BME280;64133;56.002;37.208;2023-03-31T07:34:37;98217.75;;;26.27;16.14
75549;BME280;64133;56.002;37.208;2023-03-31T07:39:42;98213.30;;;28.41;14.11
75549;BME280;64133;56.002;37.208;2023-03-31T07:44:46;98214.11;;;27.58;15.01
75549;BME280;64133;56.002;37.208;2023-03-31T07:49:51;98204.73;;;30.12;13.49
75549;BME280;64133;56.002;37.208;2023-03-31T07:54:55;98192.55;;;30.07;13.60
75549;BME280;64133;56.002;37.208;2023-03-31T08:00:00;98204.09;;;29.00;13.88
75549;BME280;64133;56.002;37.208;2023-03-31T08:05:08;98203.09;;;25.91;15.62
75549;BME280;64133;56.002;37.208;2023-03-31T08:10:14;98197.68;;;29.51;13.22
75549;BME280;64133;56.002;37.208;2023-03-31T08:15:17;98199.63;;;29.38;13.21
75549;BME280;64133;56.002;37.208;2023-03-31T08:20:22;98186.59;;;29.99;13.01
75549;BME280;64133;56.002;37.208;2023-03-31T08:25:27;98180.52;;;26.02;14.41
75549;BME280;64133;56.002;37.208;2023-03-31T08:30:31;98179.03;;;25.90;15.07
75549;BME280;64133;56.002;37.208;2023-03-31T08:35:37;98171.61;;;25.33;14.30
75549;BME280;64133;56.002;37.208;2023-03-31T08:40:42;98168.93;;;21.00;17.33
75549;BME280;64133;56.002;37.208;2023-03-31T08:51:01;98140.95;;;15.78;22.80
75549;BME280;64133;56.002;37.208;2023-03-31T08:56:05;98138.12;;;14.59;24.09
75549;BME280;64133;56.002;37.208;2023-03-31T09:01:14;98142.55;;;13.60;26.14
75549;BME280;64133;56.002;37.208;2023-03-31T09:06:17;98143.45;;;11.72;27.54
75549;BME280;64133;56.002;37.208;2023-03-31T09:11:24;98145.20;;;9.78;31.64
75549;BME280;64133;56.002;37.208;2023-03-31T09:16:29;98136.88;;;10.05;32.24
75549;BME280;64133;56.002;37.208;2023-03-31T09:21:33;98125.69;;;8.49;35.10
75549;BME280;64133;56.002;37.208;2023-03-31T09:26:39;98103.19;;;10.08;34.15
75549;BME280;64133;56.002;37.208;2023-03-31T09:31:43;98095.62;;;10.57;33.50
75549;BME280;64133;56.002;37.208;2023-03-31T09:36:48;98098.67;;;10.23;33.31
75549;BME280;64133;56.002;37.208;2023-03-31T09:41:52;98094.66;;;10.28;34.06
75549;BME280;64133;56.002;37.208;2023-03-31T09:46:57;98089.94;;;9.74;34.90
75549;BME280;64133;56.002;37.208;2023-03-31T09:52:04;98071.45;;;9.66;35.59
75549;BME280;64133;56.002;37.208;2023-03-31T09:57:14;98058.49;;;11.23;33.77
75549;BME280;64133;56.002;37.208;2023-03-31T10:02:28;98069.34;;;10.70;34.20
75549;BME280;64133;56.002;37.208;2023-03-31T10:07:33;98059.03;;;9.33;36.11
75549;BME280;64133;56.002;37.208;2023-03-31T10:12:37;98047.79;;;9.62;36.15
75549;BME280;64133;56.002;37.208;2023-03-31T10:17:43;98038.06;;;9.59;36.36
75549;BME280;64133;56.002;37.208;2023-03-31T10:22:47;98022.73;;;11.62;34.39
75549;BME280;64133;56.002;37.208;2023-03-31T10:27:53;98012.53;;;11.50;33.97
75549;BME280;64133;56.002;37.208;2023-03-31T10:32:57;98012.51;;;11.26;34.73
75549;BME280;64133;56.002;37.208;2023-03-31T10:38:03;98011.43;;;10.78;35.44
75549;BME280;64133;56.002;37.208;2023-03-31T10:43:12;98012.72;;;10.31;36.16
75549;BME280;64133;56.002;37.208;2023-03-31T10:48:23;98010.75;;;9.77;36.43
75549;BME280;64133;56.002;37.208;2023-03-31T10:53:28;97998.50;;;8.20;39.29
75549;BME280;64133;56.002;37.208;2023-03-31T10:58:48;97999.13;;;8.41;39.53
75549;BME280;64133;56.002;37.208;2023-03-31T11:03:59;97994.83;;;8.03;40.27
75549;BME280;64133;56.002;37.208;2023-03-31T11:09:10;97985.56;;;8.46;40.57
75549;BME280;64133;56.002;37.208;2023-03-31T11:14:15;97977.67;;;7.95;41.67
75549;BME280;64133;56.002;37.208;2023-03-31T11:19:23;97963.03;;;8.02;41.42
75549;BME280;64133;56.002;37.208;2023-03-31T11:24:36;97973.63;;;8.10;41.66
75549;BME280;64133;56.002;37.208;2023-03-31T11:29:40;97957.22;;;7.28;42.55
75549;BME280;64133;56.002;37.208;2023-03-31T11:40:42;97951.77;;;7.25;43.44
75549;BME280;64133;56.002;37.208;2023-03-31T11:45:46;97939.98;;;6.58;45.18
75549;BME280;64133;56.002;37.208;2023-03-31T11:50:50;97927.03;;;7.24;44.60
75549;BME280;64133;56.002;37.208;2023-03-31T11:55:55;97919.21;;;7.85;43.96
75549;BME280;64133;56.002;37.208;2023-03-31T12:01:02;97914.08;;;7.93;43.77
75549;BME280;64133;56.002;37.208;2023-03-31T12:06:08;97909.25;;;7.51;43.91
75549;BME280;64133;56.002;37.208;2023-03-31T12:11:11;97908.88;;;7.26;44.88
75549;BME280;64133;56.002;37.208;2023-03-31T12:16:16;97903.55;;;6.99;45.55
75549;BME280;64133;56.002;37.208;2023-03-31T12:21:19;97890.78;;;7.19;45.41
75549;BME280;64133;56.002;37.208;2023-03-31T12:26:35;97887.31;;;7.75;44.87
75549;BME280;64133;56.002;37.208;2023-03-31T12:31:39;97871.96;;;7.43;44.57
75549;BME280;64133;56.002;37.208;2023-03-31T12:36:51;97871.52;;;7.34;45.03
75549;BME280;64133;56.002;37.208;2023-03-31T12:42:03;97866.97;;;7.26;45.28
75549;BME280;64133;56.002;37.208;2023-03-31T12:47:20;97852.02;;;7.33;45.78
75549;BME280;64133;56.002;37.208;2023-03-31T12:52:26;97857.78;;;7.60;45.45
75549;BME280;64133;56.002;37.208;2023-03-31T12:57:30;97850.39;;;7.45;45.32
75549;BME280;64133;56.002;37.208;2023-03-31T13:02:34;97853.41;;;7.50;45.79
75549;BME280;64133;56.002;37.208;2023-03-31T13:07:41;97841.72;;;7.35;46.06
75549;BME280;64133;56.002;37.208;2023-03-31T13:12:54;97841.39;;;7.11;46.18
75549;BME280;64133;56.002;37.208;2023-03-31T13:18:00;97843.65;;;6.76;47.41
75549;BME280;64133;56.002;37.208;2023-03-31T13:23:06;97837.05;;;6.63;47.42
75549;BME280;64133;56.002;37.208;2023-03-31T13:28:26;97832.14;;;6.06;48.49
75549;BME280;64133;56.002;37.208;2023-03-31T13:33:42;97830.45;;;5.95;49.13
75549;BME280;64133;56.002;37.208;2023-03-31T13:38:51;97824.78;;;5.90;49.67
75549;BME280;64133;56.002;37.208;2023-03-31T13:50:11;97822.42;;;5.87;50.31
75549;BME280;64133;56.002;37.208;2023-03-31T13:55:37;97814.72;;;5.60;51.01
75549;BME280;64133;56.002;37.208;2023-03-31T14:00:45;97819.83;;;5.46;51.84
75549;BME280;64133;56.002;37.208;2023-03-31T14:05:52;97821.05;;;5.58;51.59
75549;BME280;64133;56.002;37.208;2023-03-31T14:11:02;97809.84;;;5.61;51.99
75549;BME280;64133;56.002;37.208;2023-03-31T14:16:07;97813.90;;;5.60;52.07
75549;BME280;64133;56.002;37.208;2023-03-31T14:21:17;97807.14;;;5.57;52.22
75549;BME280;64133;56.002;37.208;2023-03-31T14:26:28;97805.16;;;5.55;52.50
75549;BME280;64133;56.002;37.208;2023-03-31T14:31:31;97791.88;;;5.27;52.89
75549;BME280;64133;56.002;37.208;2023-03-31T14:36:39;97796.08;;;5.34;53.06
75549;BME280;64133;56.002;37.208;2023-03-31T14:41:43;97797.57;;;4.96;54.15
75549;BME280;64133;56.002;37.208;2023-03-31T14:46:48;97796.26;;;5.12;54.36
75549;BME280;64133;56.002;37.208;2023-03-31T14:51:54;97789.37;;;4.95;54.60
75549;BME280;64133;56.002;37.208;2023-03-31T14:56:59;97793.27;;;5.01;54.80
75549;BME280;64133;56.002;37.208;2023-03-31T15:02:03;97799.90;;;4.99;54.91
75549;BME280;64133;56.002;37.208;2023-03-31T15:07:08;97796.28;;;4.91;55.18
75549;BME280;64133;56.002;37.208;2023-03-31T15:12:13;97795.66;;;4.77;55.63
75549;BME280;64133;56.002;37.208;2023-03-31T15:17:26;97788.31;;;4.56;56.66
75549;BME280;64133;56.002;37.208;2023-03-31T15:22:28;97798.44;;;4.49;57.06
75549;BME280;64133;56.002;37.208;2023-03-31T15:27:34;97792.22;;;4.56;57.42
75549;BME280;64133;56.002;37.208;2023-03-31T15:32:38;97793.44;;;4.25;58.06
75549;BME280;64133;56.002;37.208;2023-03-31T15:37:43;97789.25;;;4.40;57.86
75549;BME280;64133;56.002;37.208;2023-03-31T15:42:48;97797.14;;;4.44;58.56
75549;BME280;64133;56.002;37.208;2023-03-31T15:47:53;97786.98;;;4.35;59.33
75549;BME280;64133;56.002;37.208;2023-03-31T15:52:58;97798.23;;;4.15;59.40
75549;BME280;64133;56.002;37.208;2023-03-31T15:58:02;97794.23;;;3.99;60.18
75549;BME280;64133;56.002;37.208;2023-03-31T16:03:12;97792.83;;;3.95;60.76
75549;BME280;64133;56.002;37.208;2023-03-31T16:08:16;97787.10;;;3.75;61.90
75549;BME280;64133;56.002;37.208;2023-03-31T16:13:21;97787.80;;;3.77;62.42
75549;BME280;64133;56.002;37.208;2023-03-31T16:18:28;97789.00;;;3.67;62.93
75549;BME280;64133;56.002;37.208;2023-03-31T16:23:34;97789.23;;;3.75;63.94
75549;BME280;64133;56.002;37.208;2023-03-31T16:28:38;97779.12;;;3.82;64.50
75549;BME280;64133;56.002;37.208;2023-03-31T16:33:53;97788.52;;;3.79;65.22
75549;BME280;64133;56.002;37.208;2023-03-31T16:38:57;97788.52;;;3.68;65.71
75549;BME280;64133;56.002;37.208;2023-03-31T16:44:02;97781.65;;;3.72;65.71
75549;BME280;64133;56.002;37.208;2023-03-31T16:49:07;97780.00;;;3.71;65.58
75549;BME280;64133;56.002;37.208;2023-03-31T16:54:11;97780.66;;;3.36;66.84
75549;BME280;64133;56.002;37.208;2023-03-31T16:59:17;97776.48;;;3.39;67.54
75549;BME280;64133;56.002;37.208;2023-03-31T17:04:21;97784.67;;;3.40;67.85
75549;BME280;64133;56.002;37.208;2023-03-31T17:09:26;97778.50;;;2.96;69.15
75549;BME280;64133;56.002;37.208;2023-03-31T17:14:31;97781.23;;;2.89;70.22
75549;BME280;64133;56.002;37.208;2023-03-31T17:19:35;97788.44;;;2.85;70.81
75549;BME280;64133;56.002;37.208;2023-03-31T17:24:40;97785.86;;;2.96;71.48
75549;BME280;64133;56.002;37.208;2023-03-31T17:29:45;97780.41;;;2.99;71.10
75549;BME280;64133;56.002;37.208;2023-03-31T17:34:49;97778.86;;;2.74;72.54
75549;BME280;64133;56.002;37.208;2023-03-31T17:39:54;97774.67;;;2.55;72.89
75549;BME280;64133;56.002;37.208;2023-03-31T17:44:59;97772.55;;;2.55;73.64
75549;BME280;64133;56.002;37.208;2023-03-31T17:50:04;97767.64;;;2.80;73.78
75549;BME280;64133;56.002;37.208;2023-03-31T17:55:09;97761.84;;;2.82;73.46
75549;BME280;64133;56.002;37.208;2023-03-31T18:00:15;97758.16;;;2.62;73.96
75549;BME280;64133;56.002;37.208;2023-03-31T18:05:20;97753.91;;;2.66;74.22
75549;BME280;64133;56.002;37.208;2023-03-31T18:10:25;97759.34;;;2.69;74.00
75549;BME280;64133;56.002;37.208;2023-03-31T18:15:30;97755.59;;;2.84;73.96
75549;BME280;64133;56.002;37.208;2023-03-31T18:20:34;97753.79;;;2.68;74.08
75549;BME280;64133;56.002;37.208;2023-03-31T18:25:40;97752.20;;;2.37;75.02
75549;BME280;64133;56.002;37.208;2023-03-31T18:36:01;97751.66;;;2.67;75.56
75549;BME280;64133;56.002;37.208;2023-03-31T18:41:06;97749.76;;;2.69;75.08
75549;BME280;64133;56.002;37.208;2023-03-31T18:46:10;97745.30;;;2.66;74.99
75549;BME280;64133;56.002;37.208;2023-03-31T18:51:15;97743.27;;;2.69;75.00
75549;BME280;64133;56.002;37.208;2023-03-31T18:56:20;97735.94;;;2.63;74.84
75549;BME280;64133;56.002;37.208;2023-03-31T19:01:24;97730.14;;;2.54;74.90
75549;BME280;64133;56.002;37.208;2023-03-31T19:06:32;97727.64;;;2.47;75.14
75549;BME280;64133;56.002;37.208;2023-03-31T19:11:36;97718.20;;;2.46;75.61
75549;BME280;64133;56.002;37.208;2023-03-31T19:16:41;97711.44;;;2.43;75.61
75549;BME280;64133;56.002;37.208;2023-03-31T19:21:46;97707.77;;;2.29;76.01
75549;BME280;64133;56.002;37.208;2023-03-31T19:26:50;97711.09;;;2.42;76.27
75549;BME280;64133;56.002;37.208;2023-03-31T19:31:55;97711.09;;;2.37;76.35
75549;BME280;64133;56.002;37.208;2023-03-31T19:37:00;97706.41;;;2.53;76.12
75549;BME280;64133;56.002;37.208;2023-03-31T19:42:05;97704.98;;;2.49;75.95
75549;BME280;64133;56.002;37.208;2023-03-31T19:47:10;97702.60;;;2.46;75.81
75549;BME280;64133;56.002;37.208;2023-03-31T19:52:14;97695.85;;;2.38;76.00
75549;BME280;64133;56.002;37.208;2023-03-31T19:57:19;97692.40;;;2.26;76.13
75549;BME280;64133;56.002;37.208;2023-03-31T20:02:24;97687.36;;;2.36;76.33
75549;BME280;64133;56.002;37.208;2023-03-31T20:07:28;97686.19;;;2.40;76.39
75549;BME280;64133;56.002;37.208;2023-03-31T20:12:33;97682.61;;;2.18;76.45
75549;BME280;64133;56.002;37.208;2023-03-31T20:17:38;97677.77;;;2.31;76.96
75549;BME280;64133;56.002;37.208;2023-03-31T20:22:42;97673.67;;;2.45;76.82
75549;BME280;64133;56.002;37.208;2023-03-31T20:33:01;97672.59;;;2.36;76.39
75549;BME280;64133;56.002;37.208;2023-03-31T20:38:06;97662.08;;;2.26;76.44
75549;BME280;64133;56.002;37.208;2023-03-31T20:43:10;97667.38;;;2.25;76.59
75549;BME280;64133;56.002;37.208;2023-03-31T20:48:15;97668.32;;;2.24;76.63
75549;BME280;64133;56.002;37.208;2023-03-31T20:53:20;97665.47;;;2.16;76.81
75549;BME280;64133;56.002;37.208;2023-03-31T20:58:24;97668.67;;;2.19;76.99
75549;BME280;64133;56.002;37.208;2023-03-31T21:03:29;97670.57;;;2.23;76.98
75549;BME280;64133;56.002;37.208;2023-03-31T21:08:34;97664.17;;;2.21;77.08
75549;BME280;64133;56.002;37.208;2023-03-31T21:13:38;97667.24;;;2.15;77.10
75549;BME280;64133;56.002;37.208;2023-03-31T21:18:43;97667.02;;;2.18;77.18
75549;BME280;64133;56.002;37.208;2023-03-31T21:23:47;97662.62;;;2.13;77.14
75549;BME280;64133;56.002;37.208;2023-03-31T21:28:52;97671.74;;;2.19;77.27
75549;BME280;64133;56.002;37.208;2023-03-31T21:33:57;97662.88;;;2.16;77.23
75549;BME280;64133;56.002;37.208;2023-03-31T21:39:01;97662.75;;;2.12;77.34
75549;BME280;64133;56.002;37.208;2023-03-31T21:44:06;97664.17;;;2.16;77.40
75549;BME280;64133;56.002;37.208;2023-03-31T21:49:11;97658.38;;;2.12;77.46
75549;BME280;64133;56.002;37.208;2023-03-31T21:54:16;97661.23;;;2.15;77.50
75549;BME280;64133;56.002;37.208;2023-03-31T21:59:21;97650.84;;;2.15;77.57
75549;BME280;64133;56.002;37.208;2023-03-31T22:04:26;97651.78;;;2.14;77.48
75549;BME280;64133;56.002;37.208;2023-03-31T22:09:30;97660.62;;;2.06;77.55
75549;BME280;64133;56.002;37.208;2023-03-31T22:14:37;97657.42;;;2.13;77.87
75549;BME280;64133;56.002;37.208;2023-03-31T22:19:41;97660.27;;;2.10;77.62
75549;BME280;64133;56.002;37.208;2023-03-31T22:24:46;97648.33;;;1.96;77.60
75549;BME280;64133;56.002;37.208;2023-03-31T22:29:51;97647.94;;;1.90;77.55
75549;BME280;64133;56.002;37.208;2023-03-31T22:34:55;97647.23;;;1.88;77.59
75549;BME280;64133;56.002;37.208;2023-03-31T22:40:00;97651.39;;;1.96;77.82
75549;BME280;64133;56.002;37.208;2023-03-31T22:45:06;97650.20;;;2.00;77.72
75549;BME280;64133;56.002;37.208;2023-03-31T22:50:11;97641.45;;;1.90;77.62
75549;BME280;64133;56.002;37.208;2023-03-31T22:55:16;97643.91;;;1.86;77.61
75549;BME280;64133;56.002;37.208;2023-03-31T23:00:21;97640.38;;;1.87;77.65
75549;BME280;64133;56.002;37.208;2023-03-31T23:05:25;97638.98;;;1.88;77.86
75549;BME280;64133;56.002;37.208;2023-03-31T23:10:30;97636.16;;;1.97;77.95
75549;BME280;64133;56.002;37.208;2023-03-31T23:20:51;97623.44;;;2.11;78.30
75549;BME280;64133;56.002;37.208;2023-03-31T23:25:56;97613.63;;;2.03;78.39
75549;BME280;64133;56.002;37.208;2023-03-31T23:31:00;97618.94;;;2.07;78.63
75549;BME280;64133;56.002;37.208;2023-03-31T23:36:06;97617.30;;;2.06;78.68
75549;BME280;64133;56.002;37.208;2023-03-31T23:41:10;97623.44;;;2.05;78.81
75549;BME280;64133;56.002;37.208;2023-03-31T23:46:15;97619.29;;;2.08;78.87
75549;BME280;64133;56.002;37.208;2023-03-31T23:51:20;97612.80;;;2.08;78.99
75549;BME280;64133;56.002;37.208;2023-03-31T23:56:24;97607.73;;;2.12;79.00
